createdAt,value
2017-05-14T00:00:10.668Z,61.35
2017-05-14T00:05:03.361Z,60.46
2017-05-14T00:10:03.180Z,60.08
2017-05-14T00:15:02.874Z,59.22
2017-05-14T00:20:18.603Z,58.75
2017-05-14T00:25:03.304Z,58.17
2017-05-14T00:30:03.020Z,57.7
2017-05-14T00:35:02.816Z,57.6
2017-05-14T00:40:03.692Z,57.5
2017-05-14T00:45:34.534Z,57.79
2017-05-14T00:50:03.076Z,58.46
2017-05-14T00:55:02.770Z,58.72
2017-05-14T01:00:03.528Z,58.43
2017-05-14T01:05:03.291Z,57.48
2017-05-14T01:10:18.044Z,56.43
2017-05-14T01:15:03.704Z,55.47
2017-05-14T01:20:03.504Z,55.19
2017-05-14T01:25:03.147Z,54.24
2017-05-14T01:30:02.786Z,53.76
2017-05-14T01:35:03.511Z,53.28
2017-05-14T01:40:03.326Z,52.71
2017-05-14T01:45:03.076Z,52.52
2017-05-14T01:50:02.952Z,52.33
2017-05-14T01:55:03.624Z,52.23
2017-05-14T02:00:10.258Z,51.95
2017-05-14T02:05:02.846Z,51.66
2017-05-14T02:10:03.678Z,51.66
2017-05-14T02:15:03.448Z,51.37
2017-05-14T02:20:03.130Z,51.37
2017-05-14T02:25:02.748Z,51.28
2017-05-14T02:30:03.342Z,51.28
2017-05-14T02:35:02.976Z,51.28
2017-05-14T02:40:02.741Z,51.18
2017-05-14T02:45:03.574Z,50.99
2017-05-14T02:50:03.272Z,50.9
2017-05-14T02:55:02.877Z,50.9
2017-05-14T03:00:03.597Z,50.9
2017-05-14T03:05:03.212Z,51.06
2017-05-14T03:10:02.887Z,51.06
2017-05-14T03:15:03.662Z,51.06
2017-05-14T03:20:04.313Z,51.06
2017-05-14T03:25:03.032Z,51.06
2017-05-14T03:30:03.634Z,51.06
2017-05-14T03:35:03.290Z,50.97
2017-05-14T03:40:03.097Z,50.97
2017-05-14T03:45:02.704Z,50.97
2017-05-14T03:50:03.385Z,50.87
2017-05-14T03:55:02.908Z,50.8
2017-05-14T04:00:03.548Z,50.8
2017-05-14T04:05:03.151Z,50.8
2017-05-14T04:10:02.864Z,50.99
2017-05-14T04:15:03.463Z,51.18
2017-05-14T04:20:03.299Z,51.18
2017-05-14T04:25:03.033Z,51.28
2017-05-14T04:30:03.760Z,51.35
2017-05-14T04:35:03.514Z,51.37
2017-05-14T04:40:03.371Z,51.37
2017-05-14T04:45:03.091Z,51.56
2017-05-14T04:50:03.697Z,51.85
2017-05-14T04:55:03.366Z,52.16
2017-05-14T05:00:03.124Z,52.36
2017-05-14T05:05:02.871Z,52.73
2017-05-14T05:10:03.660Z,53.43
2017-05-14T05:15:03.212Z,55.53
2017-05-14T05:20:02.955Z,55.05
2017-05-14T05:25:02.745Z,56.23
2017-05-14T05:30:03.372Z,60.07
2017-05-14T05:35:03.095Z,61.69
2017-05-14T05:40:03.714Z,61.69
2017-05-14T05:45:03.589Z,60.93
2017-05-14T05:50:03.293Z,61.98
2017-05-14T05:55:02.826Z,62.94
2017-05-14T06:00:03.454Z,63.99
2017-05-14T06:05:03.132Z,65.64
2017-05-14T06:10:02.809Z,67.46
2017-05-14T06:15:03.400Z,68.99
2017-05-14T06:20:02.988Z,70.33
2017-05-14T06:25:03.735Z,72.75
2017-05-14T06:30:03.366Z,72.85
2017-05-14T06:35:02.966Z,74.76
2017-05-14T06:40:03.724Z,75.05
2017-05-14T06:45:03.330Z,76
2017-05-14T06:50:02.923Z,78.97
2017-05-14T06:55:03.589Z,79.93
2017-05-14T07:00:03.209Z,80.92
2017-05-14T07:05:02.997Z,83.5
2017-05-14T07:10:03.732Z,85.89
2017-05-14T07:15:03.538Z,86.28
2017-05-14T07:20:03.158Z,88.48
2017-05-14T07:25:02.852Z,89.38
2017-05-14T07:30:02.771Z,92.01
2017-05-14T07:35:03.609Z,96.13
2017-05-14T07:40:03.333Z,99.96
2017-05-14T07:45:03.036Z,99.99
2017-05-14T07:50:03.302Z,99.99
2017-05-14T07:55:03.361Z,99.99
2017-05-14T08:00:03.301Z,99.99
2017-05-14T08:05:03.123Z,99.99
2017-05-14T08:10:03.234Z,99.99
2017-05-14T08:15:02.888Z,99.99
2017-05-14T08:20:03.590Z,99.99
2017-05-14T08:25:03.605Z,99.99
2017-05-14T08:30:03.233Z,99.99
2017-05-14T08:35:02.805Z,99.99
2017-05-14T08:40:03.620Z,94.63
2017-05-14T08:45:03.234Z,91.88
2017-05-14T08:50:03.039Z,96.08
2017-05-14T08:55:03.728Z,96.61
2017-05-14T09:00:03.528Z,99.99
2017-05-14T09:05:03.135Z,99.99
2017-05-14T09:10:02.905Z,99.99
2017-05-14T09:15:02.714Z,97.14
2017-05-14T09:20:03.472Z,92.8
2017-05-14T09:25:03.217Z,97.19
2017-05-14T09:30:02.966Z,96.32
2017-05-14T09:35:03.656Z,91.39
2017-05-14T09:40:03.736Z,86.42
2017-05-14T09:45:03.480Z,82.4
2017-05-14T09:50:03.164Z,81.05
2017-05-14T09:55:02.773Z,80.18
2017-05-14T10:00:03.602Z,76.78
2017-05-14T10:05:03.358Z,78.06
2017-05-14T10:10:03.173Z,76.35
2017-05-14T10:15:02.772Z,75.64
2017-05-14T10:20:03.459Z,79.87
2017-05-14T10:25:03.432Z,81.09
2017-05-14T10:30:03.346Z,82.97
2017-05-14T10:35:03.069Z,79.29
2017-05-14T10:40:03.107Z,77.57
2017-05-14T10:45:03.522Z,75.12
2017-05-14T10:50:03.110Z,72.32
2017-05-14T10:55:03.268Z,71.9
2017-05-14T11:00:03.287Z,72.15
2017-05-14T11:05:02.757Z,72.55
2017-05-14T11:10:02.997Z,70.37
2017-05-14T11:15:02.761Z,61.43
2017-05-14T11:20:03.526Z,64.24
2017-05-14T11:25:03.661Z,62.98
2017-05-14T11:30:02.817Z,62.43
2017-05-14T11:35:02.935Z,63.76
2017-05-14T11:40:02.888Z,63.4
2017-05-14T11:45:02.788Z,60.98
2017-05-14T11:50:03.520Z,61.52
2017-05-14T11:55:03.175Z,61.59
2017-05-14T12:00:02.756Z,62.69
2017-05-14T12:05:03.372Z,63.31
2017-05-14T12:10:03.170Z,62.98
2017-05-14T12:15:03.041Z,61.85
2017-05-14T12:20:03.052Z,60.78
2017-05-14T12:25:02.740Z,62.4
2017-05-14T12:30:03.362Z,61.26
2017-05-14T12:35:02.996Z,60.04
2017-05-14T12:40:03.032Z,60.88
2017-05-14T12:45:03.285Z,60.57
2017-05-14T12:50:03.502Z,60.44
2017-05-14T12:55:02.965Z,60.14
2017-05-14T13:00:03.442Z,57.28
2017-05-14T13:05:02.871Z,59.44
2017-05-14T13:10:03.530Z,59.86
2017-05-14T13:15:03.360Z,60.53
2017-05-14T13:20:03.670Z,59.08
2017-05-14T13:25:02.905Z,60.02
2017-05-14T13:30:02.958Z,60.6
2017-05-14T13:35:02.828Z,60.89
2017-05-14T13:40:02.870Z,59.95
2017-05-14T13:45:02.947Z,60.63
2017-05-14T13:50:03.061Z,60.92
2017-05-14T13:55:02.803Z,60.79
2017-05-14T14:00:03.722Z,60.69
2017-05-14T14:05:03.402Z,60.86
2017-05-14T14:10:03.624Z,63.08
2017-05-14T14:15:02.803Z,63.53
2017-05-14T14:20:03.364Z,63.02
2017-05-14T14:25:02.946Z,65.5
2017-05-14T14:30:02.944Z,67.36
2017-05-14T14:35:03.539Z,68.13
2017-05-14T14:40:03.169Z,69.06
2017-05-14T14:45:03.326Z,72.88
2017-05-14T14:50:03.441Z,75.05
2017-05-14T14:55:03.536Z,81.27
2017-05-14T15:00:03.249Z,91.03
2017-05-14T15:05:03.510Z,98
2017-05-14T15:10:03.081Z,99.99
2017-05-14T15:15:03.645Z,99.99
2017-05-14T15:20:03.658Z,99.99
2017-05-14T15:25:03.086Z,99.99
2017-05-14T15:30:02.867Z,99.99
2017-05-14T15:35:03.702Z,99.99
2017-05-14T15:40:02.909Z,99.99
2017-05-14T15:45:03.157Z,99.99
2017-05-14T15:50:02.777Z,99.99
2017-05-14T15:55:03.697Z,99.99
2017-05-14T16:00:03.099Z,99.99
2017-05-14T16:05:02.812Z,99.99
2017-05-14T16:10:03.261Z,99.44
2017-05-14T16:15:03.360Z,96.85
2017-05-14T16:20:02.874Z,96.61
2017-05-14T16:25:03.642Z,94.68
2017-05-14T16:30:03.749Z,94.87
2017-05-14T16:35:03.037Z,98.96
2017-05-14T16:40:02.962Z,99.99
2017-05-14T16:45:02.792Z,99.99
2017-05-14T16:50:03.734Z,99.99
2017-05-14T16:55:02.748Z,99.99
2017-05-14T17:00:02.839Z,99.99
2017-05-14T17:05:03.501Z,99.99
2017-05-14T17:10:02.811Z,99.99
2017-05-14T17:15:03.484Z,99.99
2017-05-14T17:20:03.352Z,99.99
2017-05-14T17:25:03.234Z,99.99
2017-05-14T17:30:03.042Z,99.99
2017-05-14T17:35:02.819Z,99.99
2017-05-14T17:40:02.982Z,99.99
2017-05-14T17:45:03.678Z,99.99
2017-05-14T17:50:02.727Z,99.99
2017-05-14T17:55:03.571Z,99.99
2017-05-14T18:00:03.380Z,99.99
2017-05-14T18:05:03.646Z,99.99
2017-05-14T18:10:03.682Z,99.99
2017-05-14T18:15:03.030Z,99.99
2017-05-14T18:20:03.112Z,99.99
2017-05-14T18:25:02.771Z,99.99
2017-05-14T18:30:02.831Z,99.99
2017-05-14T18:35:03.554Z,99.99
2017-05-14T18:40:02.786Z,99.99
2017-05-14T18:45:03.325Z,99.99
2017-05-14T18:50:03.033Z,99.99
2017-05-14T18:55:02.855Z,99.99
2017-05-14T19:00:03.668Z,99.99
2017-05-14T19:05:02.763Z,99.99
2017-05-14T19:10:03.514Z,99.99
2017-05-14T19:15:03.626Z,99.99
2017-05-14T19:20:02.800Z,99.99
2017-05-14T19:25:03.007Z,99.99
2017-05-14T19:30:03.028Z,99.99
2017-05-14T19:35:03.681Z,99.99
2017-05-14T19:40:02.768Z,99.99
2017-05-14T19:45:03.681Z,99.99
2017-05-14T19:50:03.559Z,99.99
2017-05-14T19:55:03.519Z,99.99
2017-05-14T20:00:03.184Z,99.99
2017-05-14T20:05:02.829Z,99.99
2017-05-14T20:10:02.758Z,99.99
2017-05-14T20:15:02.764Z,99.99
2017-05-14T20:20:03.063Z,99.99
2017-05-14T20:25:02.875Z,99.99
2017-05-14T20:30:02.918Z,99.99
2017-05-14T20:35:03.554Z,99.99
2017-05-14T20:40:03.046Z,99.99
2017-05-14T20:45:03.263Z,99.99
2017-05-14T20:50:02.939Z,99.99
2017-05-14T20:55:02.724Z,99.99
2017-05-14T21:00:03.622Z,99.99
2017-05-14T21:05:03.524Z,99.99
2017-05-14T21:10:03.277Z,99.99
2017-05-14T21:15:02.889Z,99.99
2017-05-14T21:20:03.525Z,99.99
2017-05-14T21:25:03.412Z,99.99
2017-05-14T21:30:03.371Z,99.99
2017-05-14T21:35:03.007Z,99.99
2017-05-14T21:40:03.638Z,99.99
2017-05-14T21:45:03.271Z,99.99
2017-05-14T21:50:03.023Z,99.99
2017-05-14T21:55:02.820Z,99.99
2017-05-14T22:00:03.472Z,99.99
2017-05-14T22:05:03.096Z,99.99
2017-05-14T22:10:02.885Z,99.99
2017-05-14T22:15:03.574Z,99.99
2017-05-14T22:20:03.252Z,99.99
2017-05-14T22:25:02.949Z,99.99
2017-05-14T22:30:03.603Z,99.99
2017-05-14T22:35:03.362Z,99.99
2017-05-14T22:40:02.992Z,99.7
2017-05-14T22:45:02.826Z,99.13
2017-05-14T22:50:03.634Z,98.36
2017-05-14T22:55:03.586Z,97.7
2017-05-14T23:00:03.329Z,96.84
2017-05-14T23:05:03.204Z,96.32
2017-05-14T23:10:02.910Z,95.84
2017-05-14T23:15:03.626Z,94.7
2017-05-14T23:20:03.295Z,94.51
2017-05-14T23:25:03.030Z,94.7
2017-05-14T23:30:02.823Z,93.46
2017-05-14T23:35:03.597Z,93.46
2017-05-14T23:40:03.277Z,92.36
2017-05-14T23:45:02.902Z,92.36
2017-05-14T23:50:03.648Z,92.18
2017-05-14T23:55:03.569Z,91.22
